sensor_id;sensor_type;location;lat;lon;timestamp;pressure;altitude;pressure_sealevel;temperature;humidity
49040;BME280;36811;49.732;13.402;2022-12-07T00:02:05;97642.72;;;3.52;84.91
49040;BME280;36811;49.732;13.402;2022-12-07T00:04:30;97646.16;;;3.53;85.12
49040;BME280;36811;49.732;13.402;2022-12-07T00:06:56;97639.09;;;3.53;85.35
49040;BME280;36811;49.732;13.402;2022-12-07T00:09:21;97643.69;;;3.58;84.66
49040;BME280;36811;49.732;13.402;2022-12-07T00:11:51;97642.31;;;3.55;85.25
49040;BME280;36811;49.732;13.402;2022-12-07T00:14:18;97641.06;;;3.58;84.85
49040;BME280;36811;49.732;13.402;2022-12-07T00:16:45;97637.63;;;3.57;85.26
49040;BME280;36811;49.732;13.402;2022-12-07T00:19:12;97632.94;;;3.59;85.00
49040;BME280;36811;49.732;13.402;2022-12-07T00:21:38;97640.06;;;3.59;85.47
49040;BME280;36811;49.732;13.402;2022-12-07T00:24:04;97633.19;;;3.58;84.92
49040;BME280;36811;49.732;13.402;2022-12-07T00:26:35;97632.94;;;3.59;84.97
49040;BME280;36811;49.732;13.402;2022-12-07T00:29:08;97631.56;;;3.57;85.25
49040;BME280;36811;49.732;13.402;2022-12-07T00:31:36;97626.09;;;3.58;84.97
49040;BME280;36811;49.732;13.402;2022-12-07T00:34:05;97621.66;;;3.59;85.03
49040;BME280;36811;49.732;13.402;2022-12-07T00:36:31;97625.06;;;3.59;85.18
49040;BME280;36811;49.732;13.402;2022-12-07T00:38:59;97625.22;;;3.64;85.25
49040;BME280;36811;49.732;13.402;2022-12-07T00:41:26;97624.81;;;3.67;85.42
49040;BME280;36811;49.732;13.402;2022-12-07T00:43:53;97622.75;;;3.69;84.83
49040;BME280;36811;49.732;13.402;2022-12-07T00:46:20;97619.19;;;3.64;84.62
49040;BME280;36811;49.732;13.402;2022-12-07T00:48:47;97619.38;;;3.62;85.22
49040;BME280;36811;49.732;13.402;2022-12-07T00:51:14;97623.13;;;3.73;85.02
49040;BME280;36811;49.732;13.402;2022-12-07T00:53:41;97614.25;;;3.74;84.66
49040;BME280;36811;49.732;13.402;2022-12-07T00:56:18;97629.22;;;3.73;84.69
49040;BME280;36811;49.732;13.402;2022-12-07T00:58:44;97623.94;;;3.73;84.46
49040;BME280;36811;49.732;13.402;2022-12-07T01:01:14;97626.78;;;3.72;84.83
49040;BME280;36811;49.732;13.402;2022-12-07T01:03:39;97619.97;;;3.64;84.55
49040;BME280;36811;49.732;13.402;2022-12-07T01:06:05;97624.59;;;3.69;84.42
49040;BME280;36811;49.732;13.402;2022-12-07T01:08:32;97622.31;;;3.72;84.41
49040;BME280;36811;49.732;13.402;2022-12-07T01:11:03;97614.09;;;3.69;84.17
49040;BME280;36811;49.732;13.402;2022-12-07T01:13:30;97619.94;;;3.71;84.48
49040;BME280;36811;49.732;13.402;2022-12-07T01:15:58;97608.59;;;3.70;84.30
49040;BME280;36811;49.732;13.402;2022-12-07T01:18:29;97612.22;;;3.69;84.41
49040;BME280;36811;49.732;13.402;2022-12-07T01:21:05;97609.03;;;3.67;84.09
49040;BME280;36811;49.732;13.402;2022-12-07T01:23:32;97614.50;;;3.66;84.10
49040;BME280;36811;49.732;13.402;2022-12-07T01:26:03;97611.13;;;3.59;83.96
49040;BME280;36811;49.732;13.402;2022-12-07T01:28:28;97615.59;;;3.58;84.23
49040;BME280;36811;49.732;13.402;2022-12-07T01:31:03;97609.28;;;3.59;84.49
49040;BME280;36811;49.732;13.402;2022-12-07T01:33:31;97610.91;;;3.60;84.36
49040;BME280;36811;49.732;13.402;2022-12-07T01:36:21;97615.44;;;3.53;84.02
49040;BME280;36811;49.732;13.402;2022-12-07T01:38:49;97617.47;;;3.51;84.60
49040;BME280;36811;49.732;13.402;2022-12-07T01:41:17;97616.84;;;3.49;84.70
49040;BME280;36811;49.732;13.402;2022-12-07T01:46:37;97612.81;;;3.47;84.41
49040;BME280;36811;49.732;13.402;2022-12-07T01:49:06;97609.25;;;3.41;84.66
49040;BME280;36811;49.732;13.402;2022-12-07T01:51:34;97604.16;;;3.46;84.74
49040;BME280;36811;49.732;13.402;2022-12-07T01:54:01;97608.03;;;3.44;84.68
49040;BME280;36811;49.732;13.402;2022-12-07T01:56:28;97605.16;;;3.45;84.68
49040;BME280;36811;49.732;13.402;2022-12-07T01:58:56;97603.50;;;3.51;85.08
49040;BME280;36811;49.732;13.402;2022-12-07T02:01:22;97596.63;;;3.50;84.65
49040;BME280;36811;49.732;13.402;2022-12-07T02:03:48;97599.66;;;3.53;84.73
49040;BME280;36811;49.732;13.402;2022-12-07T02:06:17;97601.69;;;3.51;84.68
49040;BME280;36811;49.732;13.402;2022-12-07T02:08:46;97597.84;;;3.54;84.54
49040;BME280;36811;49.732;13.402;2022-12-07T02:11:13;97590.56;;;3.49;84.50
49040;BME280;36811;49.732;13.402;2022-12-07T02:13:40;97592.59;;;3.47;84.70
49040;BME280;36811;49.732;13.402;2022-12-07T02:21:52;97580.13;;;3.43;85.05
49040;BME280;36811;49.732;13.402;2022-12-07T02:24:29;97578.06;;;3.45;85.06
49040;BME280;36811;49.732;13.402;2022-12-07T02:33:02;97580.34;;;3.41;85.20
49040;BME280;36811;49.732;13.402;2022-12-07T02:35:57;97582.16;;;3.41;85.33
49040;BME280;36811;49.732;13.402;2022-12-07T02:38:35;97585.38;;;3.43;85.05
49040;BME280;36811;49.732;13.402;2022-12-07T02:41:10;97588.41;;;3.40;85.31
49040;BME280;36811;49.732;13.402;2022-12-07T02:43:43;97579.53;;;3.41;85.24
49040;BME280;36811;49.732;13.402;2022-12-07T02:46:14;97579.31;;;3.42;84.96
49040;BME280;36811;49.732;13.402;2022-12-07T02:48:43;97573.88;;;3.37;85.11
49040;BME280;36811;49.732;13.402;2022-12-07T02:51:11;97569.06;;;3.34;85.39
49040;BME280;36811;49.732;13.402;2022-12-07T02:53:39;97573.28;;;3.35;85.75
49040;BME280;36811;49.732;13.402;2022-12-07T02:56:24;97571.69;;;3.34;85.27
49040;BME280;36811;49.732;13.402;2022-12-07T03:01:59;97574.75;;;3.31;85.32
49040;BME280;36811;49.732;13.402;2022-12-07T03:07:27;97568.09;;;3.29;85.67
49040;BME280;36811;49.732;13.402;2022-12-07T03:10:07;97566.88;;;3.31;85.56
49040;BME280;36811;49.732;13.402;2022-12-07T03:15:40;97557.94;;;3.32;85.46
49040;BME280;36811;49.732;13.402;2022-12-07T03:18:10;97557.59;;;3.29;85.55
49040;BME280;36811;49.732;13.402;2022-12-07T03:20:38;97565.63;;;3.34;85.61
49040;BME280;36811;49.732;13.402;2022-12-07T03:23:07;97553.88;;;3.36;85.48
49040;BME280;36811;49.732;13.402;2022-12-07T03:25:40;97560.75;;;3.37;85.33
49040;BME280;36811;49.732;13.402;2022-12-07T03:28:07;97554.91;;;3.35;85.45
49040;BME280;36811;49.732;13.402;2022-12-07T03:30:42;97550.06;;;3.32;85.51
49040;BME280;36811;49.732;13.402;2022-12-07T03:33:13;97559.31;;;3.41;85.41
49040;BME280;36811;49.732;13.402;2022-12-07T03:35:48;97554.47;;;3.38;85.48
49040;BME280;36811;49.732;13.402;2022-12-07T03:38:23;97562.13;;;3.40;85.53
49040;BME280;36811;49.732;13.402;2022-12-07T03:41:01;97557.53;;;3.35;85.63
49040;BME280;36811;49.732;13.402;2022-12-07T03:43:31;97545.47;;;3.28;86.28
49040;BME280;36811;49.732;13.402;2022-12-07T03:46:03;97549.47;;;3.30;86.25
49040;BME280;36811;49.732;13.402;2022-12-07T03:52:32;97545.56;;;3.14;85.98
49040;BME280;36811;49.732;13.402;2022-12-07T03:57:11;97540.13;;;2.85;86.53
49040;BME280;36811;49.732;13.402;2022-12-07T03:59:38;97545.03;;;2.75;86.91
49040;BME280;36811;49.732;13.402;2022-12-07T04:02:07;97546.31;;;2.66;86.97
49040;BME280;36811;49.732;13.402;2022-12-07T04:04:34;97541.91;;;2.60;87.81
49040;BME280;36811;49.732;13.402;2022-12-07T04:06:59;97536.66;;;2.60;87.64
49040;BME280;36811;49.732;13.402;2022-12-07T04:09:26;97536.06;;;2.51;87.56
49040;BME280;36811;49.732;13.402;2022-12-07T04:11:51;97535.53;;;2.42;87.59
49040;BME280;36811;49.732;13.402;2022-12-07T04:14:17;97542.41;;;2.37;87.83
49040;BME280;36811;49.732;13.402;2022-12-07T04:19:12;97541.25;;;2.26;88.36
49040;BME280;36811;49.732;13.402;2022-12-07T04:21:38;97536.00;;;2.26;88.02
49040;BME280;36811;49.732;13.402;2022-12-07T04:24:04;97539.25;;;2.15;88.11
49040;BME280;36811;49.732;13.402;2022-12-07T04:26:30;97545.31;;;2.16;88.31
49040;BME280;36811;49.732;13.402;2022-12-07T04:28:56;97549.16;;;2.13;88.21
49040;BME280;36811;49.732;13.402;2022-12-07T04:31:21;97543.72;;;2.08;88.66
49040;BME280;36811;49.732;13.402;2022-12-07T04:33:47;97540.13;;;2.09;88.20
49040;BME280;36811;49.732;13.402;2022-12-07T04:36:12;97552.22;;;2.04;88.90
49040;BME280;36811;49.732;13.402;2022-12-07T04:38:38;97547.41;;;2.01;89.10
49040;BME280;36811;49.732;13.402;2022-12-07T04:41:08;97542.56;;;1.98;89.38
49040;BME280;36811;49.732;13.402;2022-12-07T04:43:34;97543.59;;;1.90;89.34
49040;BME280;36811;49.732;13.402;2022-12-07T04:46:01;97536.97;;;1.81;89.73
49040;BME280;36811;49.732;13.402;2022-12-07T04:48:27;97543.44;;;1.78;90.03
49040;BME280;36811;49.732;13.402;2022-12-07T04:50:53;97544.66;;;1.76;90.38
49040;BME280;36811;49.732;13.402;2022-12-07T04:53:19;97548.28;;;1.68;90.48
49040;BME280;36811;49.732;13.402;2022-12-07T04:55:45;97546.06;;;1.65;90.14
49040;BME280;36811;49.732;13.402;2022-12-07T04:58:12;97548.31;;;1.62;90.24
49040;BME280;36811;49.732;13.402;2022-12-07T05:00:38;97542.25;;;1.55;90.89
49040;BME280;36811;49.732;13.402;2022-12-07T05:03:04;97548.53;;;1.54;91.02
49040;BME280;36811;49.732;13.402;2022-12-07T05:05:29;97544.09;;;1.48;90.16
49040;BME280;36811;49.732;13.402;2022-12-07T05:07:55;97553.16;;;1.45;90.79
49040;BME280;36811;49.732;13.402;2022-12-07T05:10:21;97550.53;;;1.45;90.77
49040;BME280;36811;49.732;13.402;2022-12-07T05:12:46;97549.13;;;1.43;90.65
49040;BME280;36811;49.732;13.402;2022-12-07T05:15:13;97554.78;;;1.40;90.73
49040;BME280;36811;49.732;13.402;2022-12-07T05:17:39;97549.16;;;1.36;90.51
49040;BME280;36811;49.732;13.402;2022-12-07T05:20:06;97552.38;;;1.32;90.66
49040;BME280;36811;49.732;13.402;2022-12-07T05:22:32;97554.38;;;1.29;90.96
49040;BME280;36811;49.732;13.402;2022-12-07T05:24:58;97556.63;;;1.26;91.16
49040;BME280;36811;49.732;13.402;2022-12-07T05:27:23;97551.78;;;1.23;91.06
49040;BME280;36811;49.732;13.402;2022-12-07T05:29:50;97550.38;;;1.20;91.15
49040;BME280;36811;49.732;13.402;2022-12-07T05:32:17;97545.53;;;1.17;91.21
49040;BME280;36811;49.732;13.402;2022-12-07T05:34:43;97552.97;;;1.14;90.76
49040;BME280;36811;49.732;13.402;2022-12-07T05:37:09;97544.72;;;1.10;90.74
49040;BME280;36811;49.732;13.402;2022-12-07T05:39:34;97550.34;;;1.07;91.62
49040;BME280;36811;49.732;13.402;2022-12-07T05:42:00;97553.38;;;1.04;91.52
49040;BME280;36811;49.732;13.402;2022-12-07T05:44:44;97538.69;;;1.03;91.32
49040;BME280;36811;49.732;13.402;2022-12-07T05:47:12;97556.38;;;1.01;91.54
49040;BME280;36811;49.732;13.402;2022-12-07T05:49:38;97550.53;;;0.99;91.05
49040;BME280;36811;49.732;13.402;2022-12-07T05:52:04;97557.59;;;0.99;91.05
49040;BME280;36811;49.732;13.402;2022-12-07T05:54:30;97552.34;;;0.99;91.32
49040;BME280;36811;49.732;13.402;2022-12-07T05:56:56;97555.19;;;1.04;90.73
49040;BME280;36811;49.732;13.402;2022-12-07T05:59:21;97554.97;;;0.99;90.50
49040;BME280;36811;49.732;13.402;2022-12-07T06:02:00;97549.34;;;0.95;90.83
49040;BME280;36811;49.732;13.402;2022-12-07T06:04:29;97546.53;;;0.90;90.17
49040;BME280;36811;49.732;13.402;2022-12-07T06:06:55;97543.31;;;0.88;90.69
49040;BME280;36811;49.732;13.402;2022-12-07T06:09:22;97541.06;;;0.85;90.39
49040;BME280;36811;49.732;13.402;2022-12-07T06:11:48;97547.31;;;0.84;90.61
49040;BME280;36811;49.732;13.402;2022-12-07T06:14:32;97558.38;;;0.86;89.98
49040;BME280;36811;49.732;13.402;2022-12-07T06:16:59;97556.78;;;0.85;90.23
49040;BME280;36811;49.732;13.402;2022-12-07T06:19:25;97556.38;;;0.82;89.96
49040;BME280;36811;49.732;13.402;2022-12-07T06:21:51;97548.72;;;0.80;90.08
49040;BME280;36811;49.732;13.402;2022-12-07T06:24:17;97556.97;;;0.77;90.71
49040;BME280;36811;49.732;13.402;2022-12-07T06:26:44;97551.31;;;0.74;89.86
49040;BME280;36811;49.732;13.402;2022-12-07T06:29:11;97548.09;;;0.72;90.26
49040;BME280;36811;49.732;13.402;2022-12-07T06:31:37;97544.06;;;0.69;90.21
49040;BME280;36811;49.732;13.402;2022-12-07T06:34:06;97551.53;;;0.72;90.22
49040;BME280;36811;49.732;13.402;2022-12-07T06:36:32;97551.91;;;0.69;90.26
49040;BME280;36811;49.732;13.402;2022-12-07T06:38:58;97548.50;;;0.75;90.23
49040;BME280;36811;49.732;13.402;2022-12-07T06:41:24;97540.88;;;0.80;90.15
49040;BME280;36811;49.732;13.402;2022-12-07T06:43:50;97537.84;;;0.90;89.72
49040;BME280;36811;49.732;13.402;2022-12-07T06:46:16;97550.16;;;1.02;89.69
49040;BME280;36811;49.732;13.402;2022-12-07T06:48:42;97539.69;;;1.15;89.53
49040;BME280;36811;49.732;13.402;2022-12-07T06:51:08;97541.88;;;1.25;88.70
49040;BME280;36811;49.732;13.402;2022-12-07T06:53:35;97547.53;;;1.35;88.36
49040;BME280;36811;49.732;13.402;2022-12-07T06:56:02;97546.72;;;1.48;88.19
49040;BME280;36811;49.732;13.402;2022-12-07T06:58:27;97554.78;;;1.59;87.91
49040;BME280;36811;49.732;13.402;2022-12-07T07:00:53;97560.59;;;1.68;87.78
49040;BME280;36811;49.732;13.402;2022-12-07T07:03:19;97556.75;;;1.77;87.02
49040;BME280;36811;49.732;13.402;2022-12-07T07:05:45;97550.09;;;1.81;87.11
49040;BME280;36811;49.732;13.402;2022-12-07T07:08:11;97553.50;;;1.81;86.82
49040;BME280;36811;49.732;13.402;2022-12-07T07:10:38;97553.09;;;1.78;86.53
49040;BME280;36811;49.732;13.402;2022-12-07T07:13:05;97551.88;;;1.80;86.45
49040;BME280;36811;49.732;13.402;2022-12-07T07:15:32;97555.53;;;1.79;85.93
49040;BME280;36811;49.732;13.402;2022-12-07T07:17:58;97556.31;;;1.80;86.24
49040;BME280;36811;49.732;13.402;2022-12-07T07:20:24;97562.00;;;1.77;86.24
49040;BME280;36811;49.732;13.402;2022-12-07T07:22:50;97551.69;;;1.75;85.72
49040;BME280;36811;49.732;13.402;2022-12-07T07:25:18;97547.66;;;1.73;85.66
49040;BME280;36811;49.732;13.402;2022-12-07T07:27:44;97558.16;;;1.73;85.72
49040;BME280;36811;49.732;13.402;2022-12-07T07:30:10;97549.50;;;1.79;85.54
49040;BME280;36811;49.732;13.402;2022-12-07T07:32:37;97552.88;;;1.86;85.39
49040;BME280;36811;49.732;13.402;2022-12-07T07:35:03;97545.00;;;1.92;85.53
49040;BME280;36811;49.732;13.402;2022-12-07T07:37:29;97569.63;;;1.91;85.22
49040;BME280;36811;49.732;13.402;2022-12-07T07:39:55;97559.72;;;1.93;85.33
49040;BME280;36811;49.732;13.402;2022-12-07T07:42:20;97563.94;;;2.01;84.89
49040;BME280;36811;49.732;13.402;2022-12-07T07:44:46;97567.16;;;2.03;85.28
49040;BME280;36811;49.732;13.402;2022-12-07T07:47:12;97566.34;;;2.03;85.07
49040;BME280;36811;49.732;13.402;2022-12-07T07:49:37;97565.56;;;2.02;84.38
49040;BME280;36811;49.732;13.402;2022-12-07T07:52:05;97570.81;;;2.02;84.66
49040;BME280;36811;49.732;13.402;2022-12-07T07:54:31;97572.59;;;2.08;85.33
49040;BME280;36811;49.732;13.402;2022-12-07T07:56:57;97570.97;;;2.14;84.30
49040;BME280;36811;49.732;13.402;2022-12-07T07:59:23;97583.63;;;2.23;84.15
49040;BME280;36811;49.732;13.402;2022-12-07T08:01:50;97577.94;;;2.39;83.79
49040;BME280;36811;49.732;13.402;2022-12-07T08:04:15;97580.69;;;2.51;83.37
49040;BME280;36811;49.732;13.402;2022-12-07T08:06:42;97579.25;;;2.62;82.76
49040;BME280;36811;49.732;13.402;2022-12-07T08:09:08;97582.03;;;2.73;82.14
49040;BME280;36811;49.732;13.402;2022-12-07T08:11:35;97572.06;;;2.82;82.14
49040;BME280;36811;49.732;13.402;2022-12-07T08:14:02;97567.38;;;2.90;81.69
49040;BME280;36811;49.732;13.402;2022-12-07T08:16:28;97570.75;;;2.97;81.17
49040;BME280;36811;49.732;13.402;2022-12-07T08:18:54;97567.06;;;3.05;81.46
49040;BME280;36811;49.732;13.402;2022-12-07T08:21:20;97565.75;;;3.14;81.07
49040;BME280;36811;49.732;13.402;2022-12-07T08:23:46;97572.41;;;3.16;81.13
49040;BME280;36811;49.732;13.402;2022-12-07T08:26:16;97575.03;;;3.23;80.24
49040;BME280;36811;49.732;13.402;2022-12-07T08:28:42;97576.56;;;3.31;79.97
49040;BME280;36811;49.732;13.402;2022-12-07T08:31:14;97582.00;;;3.36;80.06
49040;BME280;36811;49.732;13.402;2022-12-07T08:33:40;97585.44;;;3.36;79.59
49040;BME280;36811;49.732;13.402;2022-12-07T08:36:09;97573.38;;;3.47;79.74
49040;BME280;36811;49.732;13.402;2022-12-07T08:38:36;97584.03;;;3.58;79.17
49040;BME280;36811;49.732;13.402;2022-12-07T08:41:02;97589.88;;;3.60;78.96
49040;BME280;36811;49.732;13.402;2022-12-07T08:43:28;97591.00;;;3.71;78.61
49040;BME280;36811;49.732;13.402;2022-12-07T08:48:33;97587.75;;;3.94;78.19
49040;BME280;36811;49.732;13.402;2022-12-07T08:51:01;97579.13;;;3.87;76.95
49040;BME280;36811;49.732;13.402;2022-12-07T08:53:28;97585.81;;;3.82;77.64
49040;BME280;36811;49.732;13.402;2022-12-07T08:55:56;97571.53;;;3.97;76.74
49040;BME280;36811;49.732;13.402;2022-12-07T08:58:23;97576.63;;;3.92;76.48
49040;BME280;36811;49.732;13.402;2022-12-07T09:00:49;97579.75;;;3.82;76.71
49040;BME280;36811;49.732;13.402;2022-12-07T09:03:15;97582.56;;;3.87;76.24
49040;BME280;36811;49.732;13.402;2022-12-07T09:05:41;97578.06;;;3.88;76.89
49040;BME280;36811;49.732;13.402;2022-12-07T09:08:08;97585.84;;;4.01;76.44
49040;BME280;36811;49.732;13.402;2022-12-07T09:10:34;97577.78;;;3.96;76.06
49040;BME280;36811;49.732;13.402;2022-12-07T09:13:00;97583.63;;;3.98;75.81
49040;BME280;36811;49.732;13.402;2022-12-07T09:15:30;97580.28;;;4.09;75.85
49040;BME280;36811;49.732;13.402;2022-12-07T09:17:56;97572.47;;;4.02;75.84
49040;BME280;36811;49.732;13.402;2022-12-07T09:20:22;97575.75;;;3.98;75.59
49040;BME280;36811;49.732;13.402;2022-12-07T09:22:48;97579.00;;;4.00;75.84
49040;BME280;36811;49.732;13.402;2022-12-07T09:25:14;97583.78;;;4.03;75.71
49040;BME280;36811;49.732;13.402;2022-12-07T09:27:40;97583.59;;;4.04;76.01
49040;BME280;36811;49.732;13.402;2022-12-07T09:30:06;97584.97;;;4.07;75.93
49040;BME280;36811;49.732;13.402;2022-12-07T09:32:32;97580.16;;;4.04;75.76
49040;BME280;36811;49.732;13.402;2022-12-07T09:34:58;97574.88;;;4.04;75.55
49040;BME280;36811;49.732;13.402;2022-12-07T09:37:24;97576.34;;;4.00;75.59
49040;BME280;36811;49.732;13.402;2022-12-07T09:39:50;97576.13;;;4.01;75.93
49040;BME280;36811;49.732;13.402;2022-12-07T09:42:45;97573.88;;;4.05;76.26
49040;BME280;36811;49.732;13.402;2022-12-07T09:45:21;97574.72;;;3.99;76.80
49040;BME280;36811;49.732;13.402;2022-12-07T09:47:48;97571.88;;;4.00;76.63
49040;BME280;36811;49.732;13.402;2022-12-07T09:50:20;97568.75;;;3.92;76.38
49040;BME280;36811;49.732;13.402;2022-12-07T09:52:47;97574.97;;;3.97;76.75
49040;BME280;36811;49.732;13.402;2022-12-07T09:55:21;97559.66;;;4.06;76.54
49040;BME280;36811;49.732;13.402;2022-12-07T09:57:49;97572.25;;;4.04;76.94
49040;BME280;36811;49.732;13.402;2022-12-07T10:00:20;97579.28;;;4.10;77.48
49040;BME280;36811;49.732;13.402;2022-12-07T10:03:05;97566.56;;;4.25;76.48
49040;BME280;36811;49.732;13.402;2022-12-07T10:05:40;97569.91;;;4.32;76.68
49040;BME280;36811;49.732;13.402;2022-12-07T10:08:12;97565.09;;;4.29;76.51
49040;BME280;36811;49.732;13.402;2022-12-07T10:10:39;97567.84;;;4.34;76.51
49040;BME280;36811;49.732;13.402;2022-12-07T10:13:11;97565.47;;;4.32;75.87
49040;BME280;36811;49.732;13.402;2022-12-07T10:15:58;97567.03;;;4.33;76.46
49040;BME280;36811;49.732;13.402;2022-12-07T10:18:30;97565.38;;;4.39;76.64
49040;BME280;36811;49.732;13.402;2022-12-07T10:21:05;97555.19;;;4.42;76.62
49040;BME280;36811;49.732;13.402;2022-12-07T10:23:33;97557.84;;;4.42;76.51
49040;BME280;36811;49.732;13.402;2022-12-07T10:25:59;97557.31;;;4.34;76.93
49040;BME280;36811;49.732;13.402;2022-12-07T10:28:36;97552.34;;;4.44;76.40
49040;BME280;36811;49.732;13.402;2022-12-07T10:31:18;97549.84;;;4.49;76.26
49040;BME280;36811;49.732;13.402;2022-12-07T10:33:59;97556.50;;;4.52;76.87
49040;BME280;36811;49.732;13.402;2022-12-07T10:36:35;97557.88;;;4.54;76.75
49040;BME280;36811;49.732;13.402;2022-12-07T10:39:13;97562.28;;;4.42;76.89
49040;BME280;36811;49.732;13.402;2022-12-07T10:41:59;97557.16;;;4.47;77.04
49040;BME280;36811;49.732;13.402;2022-12-07T10:44:30;97556.44;;;4.40;77.00
49040;BME280;36811;49.732;13.402;2022-12-07T11:00:24;97553.97;;;4.09;77.25
49040;BME280;36811;49.732;13.402;2022-12-07T11:03:23;97555.59;;;4.10;77.46
49040;BME280;36811;49.732;13.402;2022-12-07T11:08:51;97550.34;;;4.10;77.32
49040;BME280;36811;49.732;13.402;2022-12-07T11:11:51;97543.72;;;4.19;77.42
49040;BME280;36811;49.732;13.402;2022-12-07T11:23:18;97537.75;;;4.12;77.61
49040;BME280;36811;49.732;13.402;2022-12-07T11:26:13;97538.09;;;4.15;77.95
49040;BME280;36811;49.732;13.402;2022-12-07T11:34:36;97520.09;;;4.30;77.62
49040;BME280;36811;49.732;13.402;2022-12-07T11:37:10;97510.81;;;4.28;77.85
49040;BME280;36811;49.732;13.402;2022-12-07T11:39:52;97507.56;;;4.44;77.60
49040;BME280;36811;49.732;13.402;2022-12-07T11:42:25;97503.47;;;4.48;77.54
49040;BME280;36811;49.732;13.402;2022-12-07T11:44:56;97507.47;;;4.50;76.70
49040;BME280;36811;49.732;13.402;2022-12-07T11:47:36;97495.91;;;4.52;76.62
49040;BME280;36811;49.732;13.402;2022-12-07T11:52:49;97505.03;;;4.79;76.73
49040;BME280;36811;49.732;13.402;2022-12-07T11:55:45;97499.34;;;4.93;75.66
49040;BME280;36811;49.732;13.402;2022-12-07T12:03:44;97497.56;;;5.17;75.36
49040;BME280;36811;49.732;13.402;2022-12-07T12:06:12;97493.09;;;5.29;75.12
49040;BME280;36811;49.732;13.402;2022-12-07T12:08:43;97489.28;;;5.13;74.39
49040;BME280;36811;49.732;13.402;2022-12-07T12:17:22;97491.28;;;5.18;74.84
49040;BME280;36811;49.732;13.402;2022-12-07T12:20:39;97484.09;;;4.84;74.41
49040;BME280;36811;49.732;13.402;2022-12-07T12:23:22;97484.59;;;4.92;74.86
49040;BME280;36811;49.732;13.402;2022-12-07T12:25:58;97477.13;;;4.89;74.46
49040;BME280;36811;49.732;13.402;2022-12-07T12:31:13;97478.25;;;4.93;74.93
49040;BME280;36811;49.732;13.402;2022-12-07T12:33:59;97481.88;;;5.10;75.46
49040;BME280;36811;49.732;13.402;2022-12-07T12:47:00;97485.22;;;4.76;76.01
49040;BME280;36811;49.732;13.402;2022-12-07T12:49:37;97474.38;;;4.84;76.90
49040;BME280;36811;49.732;13.402;2022-12-07T12:54:38;97484.59;;;5.04;75.92
49040;BME280;36811;49.732;13.402;2022-12-07T13:00:01;97482.44;;;5.12;76.55
49040;BME280;36811;49.732;13.402;2022-12-07T13:02:37;97481.16;;;5.15;75.80
49040;BME280;36811;49.732;13.402;2022-12-07T13:15:52;97482.75;;;4.93;75.18
49040;BME280;36811;49.732;13.402;2022-12-07T13:29:02;97476.56;;;4.87;75.95
49040;BME280;36811;49.732;13.402;2022-12-07T13:31:31;97478.00;;;4.83;75.76
49040;BME280;36811;49.732;13.402;2022-12-07T13:33:59;97466.00;;;4.87;76.62
49040;BME280;36811;49.732;13.402;2022-12-07T13:36:34;97461.75;;;4.86;75.85
49040;BME280;36811;49.732;13.402;2022-12-07T13:41:44;97466.22;;;4.86;76.02
49040;BME280;36811;49.732;13.402;2022-12-07T13:44:15;97470.59;;;4.92;76.48
49040;BME280;36811;49.732;13.402;2022-12-07T13:49:31;97467.94;;;4.80;76.36
49040;BME280;36811;49.732;13.402;2022-12-07T13:52:22;97462.22;;;4.83;76.33
49040;BME280;36811;49.732;13.402;2022-12-07T13:54:59;97467.22;;;4.73;76.64
49040;BME280;36811;49.732;13.402;2022-12-07T13:57:28;97471.47;;;4.74;76.82
49040;BME280;36811;49.732;13.402;2022-12-07T13:59:57;97470.22;;;4.77;77.06
49040;BME280;36811;49.732;13.402;2022-12-07T14:02:29;97470.34;;;4.70;77.17
49040;BME280;36811;49.732;13.402;2022-12-07T14:08:01;97469.97;;;4.67;77.54
49040;BME280;36811;49.732;13.402;2022-12-07T14:10:33;97469.16;;;4.55;76.95
49040;BME280;36811;49.732;13.402;2022-12-07T14:13:02;97468.22;;;4.61;77.53
49040;BME280;36811;49.732;13.402;2022-12-07T14:15:33;97462.81;;;4.56;77.38
49040;BME280;36811;49.732;13.402;2022-12-07T14:18:02;97470.97;;;4.54;77.15
49040;BME280;36811;49.732;13.402;2022-12-07T14:20:36;97471.53;;;4.56;77.19
49040;BME280;36811;49.732;13.402;2022-12-07T14:23:03;97477.50;;;4.52;77.88
49040;BME280;36811;49.732;13.402;2022-12-07T14:25:49;97463.19;;;4.47;77.85
49040;BME280;36811;49.732;13.402;2022-12-07T14:28:29;97457.97;;;4.41;78.03
49040;BME280;36811;49.732;13.402;2022-12-07T14:30:56;97463.78;;;4.31;78.18
49040;BME280;36811;49.732;13.402;2022-12-07T14:33:23;97465.72;;;4.24;78.59
49040;BME280;36811;49.732;13.402;2022-12-07T14:35:50;97465.50;;;4.08;80.22
49040;BME280;36811;49.732;13.402;2022-12-07T14:38:20;97458.75;;;3.82;81.53
49040;BME280;36811;49.732;13.402;2022-12-07T14:40:48;97466.00;;;3.68;83.02
49040;BME280;36811;49.732;13.402;2022-12-07T14:43:15;97471.09;;;3.63;83.71
49040;BME280;36811;49.732;13.402;2022-12-07T14:45:42;97482.25;;;3.41;84.08
49040;BME280;36811;49.732;13.402;2022-12-07T14:48:11;97467.97;;;3.12;85.01
49040;BME280;36811;49.732;13.402;2022-12-07T14:50:44;97465.94;;;2.89;87.08
49040;BME280;36811;49.732;13.402;2022-12-07T14:53:16;97476.28;;;2.84;88.12
49040;BME280;36811;49.732;13.402;2022-12-07T14:55:43;97469.03;;;2.80;88.90
49040;BME280;36811;49.732;13.402;2022-12-07T14:58:17;97460.75;;;2.83;89.34
49040;BME280;36811;49.732;13.402;2022-12-07T15:00:44;97464.94;;;2.90;89.40
49040;BME280;36811;49.732;13.402;2022-12-07T15:03:10;97456.97;;;2.97;89.49
49040;BME280;36811;49.732;13.402;2022-12-07T15:05:38;97457.72;;;3.04;89.12
49040;BME280;36811;49.732;13.402;2022-12-07T15:08:04;97459.06;;;3.13;89.13
49040;BME280;36811;49.732;13.402;2022-12-07T15:10:32;97456.03;;;3.16;89.00
49040;BME280;36811;49.732;13.402;2022-12-07T15:13:01;97459.59;;;3.21;88.40
49040;BME280;36811;49.732;13.402;2022-12-07T15:15:48;97454.47;;;3.27;88.55
49040;BME280;36811;49.732;13.402;2022-12-07T15:18:14;97452.66;;;3.27;88.32
49040;BME280;36811;49.732;13.402;2022-12-07T15:20:40;97442.53;;;3.31;87.84
49040;BME280;36811;49.732;13.402;2022-12-07T15:23:06;97443.13;;;3.33;87.17